createdAt,value
2018-11-10T18:27:31.792Z,1.20
2018-11-10T18:28:21.698Z,1.60
2018-11-10T18:29:21.651Z,1.40
2018-11-10T18:30:23.251Z,1.50
2018-11-10T18:31:21.614Z,1.40
2018-11-10T18:32:21.619Z,1.20
2018-11-10T18:33:21.539Z,1.70
2018-11-10T18:34:21.524Z,1.70
2018-11-10T18:35:21.500Z,1.60
2018-11-10T18:36:21.461Z,1.50
2018-11-10T18:37:21.436Z,1.50
2018-11-10T18:38:21.490Z,1.20
2018-11-10T18:39:21.457Z,1.60
2018-11-10T18:40:21.380Z,1.70
2018-11-10T18:41:21.413Z,1.40
2018-11-10T18:42:21.384Z,1.40
2018-11-10T18:43:21.311Z,1.60
2018-11-10T18:44:21.290Z,1.50
2018-11-10T18:45:21.300Z,1.40
2018-11-10T18:46:21.321Z,1.90
2018-11-10T18:47:21.265Z,1.70
2018-11-10T18:49:44.252Z,2.10
2018-11-10T18:50:44.216Z,1.90
2018-11-10T18:51:44.347Z,2.00
2018-11-10T18:52:44.187Z,2.40
2018-11-10T18:53:44.163Z,2.10
2018-11-10T18:54:44.132Z,2.50
2018-11-10T18:55:44.097Z,3.70
2018-11-10T18:56:44.080Z,2.00
2018-11-10T18:57:44.277Z,2.40
2018-11-10T18:58:44.083Z,2.40
2018-11-10T18:59:44.083Z,2.30
2018-11-10T19:00:44.108Z,2.60
2018-11-10T19:01:44.074Z,2.50
2018-11-10T19:02:43.978Z,2.80
2018-11-10T19:03:44.008Z,2.70
2018-11-10T19:04:43.916Z,2.50
2018-11-10T19:05:43.912Z,2.60
2018-11-10T19:06:43.875Z,2.20
2018-11-10T19:07:43.879Z,2.50
2018-11-10T19:08:43.859Z,2.70
2018-11-10T19:09:43.820Z,2.50
2018-11-10T19:10:43.799Z,2.60
2018-11-10T19:11:43.774Z,2.80
2018-11-10T19:12:43.816Z,2.50
2018-11-10T19:13:43.728Z,2.80
2018-11-10T19:14:43.719Z,5.10
2018-11-10T19:15:43.712Z,5.20
2018-11-10T19:16:43.674Z,3.50
2018-11-10T19:17:43.659Z,2.90
2018-11-10T19:18:43.652Z,2.70
2018-11-10T19:19:43.654Z,2.30
2018-11-10T19:20:43.603Z,2.30
2018-11-10T19:21:43.572Z,2.50
2018-11-10T19:22:43.579Z,2.00
2018-11-10T19:23:43.547Z,2.70
2018-11-10T19:24:43.570Z,2.30
2018-11-10T19:25:43.494Z,2.50
2018-11-10T19:26:43.464Z,2.50
2018-11-10T19:27:43.471Z,2.10
2018-11-10T19:28:43.474Z,2.20
2018-11-10T19:29:43.405Z,2.60
2018-11-10T19:30:43.408Z,2.50
2018-11-10T19:31:43.386Z,2.00
2018-11-10T19:32:43.367Z,2.20
2018-11-10T19:33:43.324Z,2.70
2018-11-10T19:34:43.323Z,2.20
2018-11-10T19:35:43.288Z,2.20
2018-11-10T19:36:43.366Z,2.30
2018-11-10T19:37:43.250Z,2.40
2018-11-10T19:38:43.263Z,2.70
2018-11-10T19:39:43.206Z,2.40
2018-11-10T19:40:43.230Z,2.40
2018-11-10T19:41:43.267Z,2.30
2018-11-10T19:42:43.191Z,2.10
2018-11-10T19:43:43.165Z,2.50
2018-11-10T19:44:43.144Z,2.60
2018-11-10T19:45:43.118Z,2.50
2018-11-10T19:46:43.060Z,2.20
2018-11-10T19:47:43.039Z,2.60
2018-11-10T19:48:43.021Z,2.50
2018-11-10T19:49:43.015Z,2.30
2018-11-10T19:50:43.100Z,2.40
2018-11-10T19:51:43.323Z,2.40
2018-11-10T19:52:42.959Z,2.60
2018-11-10T19:53:43.002Z,2.40
2018-11-10T19:54:42.940Z,2.50
2018-11-10T19:55:42.881Z,2.60
2018-11-10T19:56:42.879Z,2.50
2018-11-10T19:57:42.863Z,2.70
2018-11-10T19:58:42.824Z,2.30
2018-11-10T19:59:42.826Z,2.60
2018-11-10T20:00:42.841Z,2.50
2018-11-10T20:01:42.759Z,2.30
2018-11-10T20:02:42.754Z,2.50
2018-11-10T20:03:42.732Z,2.40
2018-11-10T20:04:42.725Z,2.40
2018-11-10T20:05:42.674Z,2.50
2018-11-10T20:06:42.699Z,2.40
2018-11-10T20:07:42.694Z,3.10
2018-11-10T20:08:42.617Z,2.80
2018-11-10T20:09:42.594Z,2.80
2018-11-10T20:10:42.644Z,2.60
2018-11-10T20:11:42.553Z,2.70
2018-11-10T20:12:42.575Z,2.50
2018-11-10T20:13:42.539Z,2.60
2018-11-10T20:14:42.604Z,2.70
2018-11-10T20:15:42.501Z,2.30
2018-11-10T20:16:42.454Z,2.10
2018-11-10T20:17:42.433Z,2.40
2018-11-10T20:18:42.929Z,2.10
2018-11-10T20:19:42.470Z,2.20
2018-11-10T20:20:42.403Z,2.50
2018-11-10T20:21:42.381Z,2.40
2018-11-10T20:22:42.340Z,2.50
2018-11-10T20:23:42.339Z,2.30
2018-11-10T20:24:42.326Z,2.70
2018-11-10T20:25:42.295Z,3.00
2018-11-10T20:26:42.259Z,2.50
2018-11-10T20:27:42.242Z,2.60
2018-11-10T20:28:42.402Z,2.60
2018-11-10T20:29:42.205Z,2.50
2018-11-10T20:30:42.187Z,2.50
2018-11-10T20:31:42.182Z,2.50
2018-11-10T20:32:42.182Z,2.40
2018-11-10T20:33:42.119Z,2.30
2018-11-10T20:34:42.124Z,2.60
2018-11-10T20:35:42.092Z,2.90
2018-11-10T20:36:42.081Z,2.60
2018-11-10T20:37:42.025Z,3.80
2018-11-10T20:38:42.085Z,2.90
2018-11-10T20:39:42.006Z,2.60
2018-11-10T20:40:41.988Z,2.80
2018-11-10T20:41:41.941Z,3.20
2018-11-10T20:42:41.931Z,3.40
2018-11-10T20:43:41.898Z,3.20
2018-11-10T20:44:41.891Z,3.40
2018-11-10T20:45:41.897Z,2.80
2018-11-10T20:46:41.859Z,2.90
2018-11-10T20:47:41.836Z,2.90
2018-11-10T20:48:41.842Z,2.40
2018-11-10T20:49:41.805Z,3.20
2018-11-10T20:50:41.789Z,3.20
2018-11-10T20:51:41.782Z,3.00
2018-11-10T20:52:41.759Z,2.90
2018-11-10T20:53:41.765Z,2.60
2018-11-10T20:54:41.704Z,2.50
2018-11-10T20:55:41.695Z,2.90
2018-11-10T20:56:41.655Z,2.60
2018-11-10T20:57:41.620Z,2.60
2018-11-10T20:58:41.643Z,2.70
2018-11-10T20:59:41.590Z,2.60
2018-11-10T21:00:41.716Z,2.40
2018-11-10T21:01:41.656Z,2.50
2018-11-10T21:02:41.537Z,3.00
2018-11-10T21:03:41.492Z,3.00
2018-11-10T21:04:41.497Z,2.70
2018-11-10T21:05:41.487Z,2.70
2018-11-10T21:06:41.441Z,2.70
2018-11-10T21:07:41.452Z,2.60
2018-11-10T21:08:41.414Z,2.50
2018-11-10T21:09:41.393Z,2.80
2018-11-10T21:10:41.356Z,2.50
2018-11-10T21:11:41.362Z,2.70
2018-11-10T21:12:41.400Z,2.80
2018-11-10T21:13:41.313Z,2.60
2018-11-10T21:14:41.276Z,2.40
2018-11-10T21:15:41.297Z,2.70
2018-11-10T21:16:41.267Z,2.60
2018-11-10T21:17:41.221Z,2.40
2018-11-10T21:18:41.213Z,2.30
2018-11-10T21:19:41.193Z,2.10
2018-11-10T21:20:41.171Z,2.10
2018-11-10T21:21:41.131Z,2.30
2018-11-10T21:22:41.106Z,2.10
2018-11-10T21:23:41.111Z,2.30
2018-11-10T21:24:41.098Z,2.40
2018-11-10T21:25:41.047Z,2.30
2018-11-10T21:26:41.039Z,2.50
2018-11-10T21:27:41.035Z,2.60
2018-11-10T21:28:41.115Z,2.20
2018-11-10T21:29:41.091Z,2.30
2018-11-10T21:30:40.977Z,2.20
2018-11-10T21:31:40.926Z,2.20
2018-11-10T21:32:40.914Z,2.20
2018-11-10T21:33:41.021Z,2.40
2018-11-10T21:34:40.891Z,2.40
2018-11-10T21:35:41.011Z,2.40
2018-11-10T21:36:40.855Z,2.20
2018-11-10T21:37:40.803Z,2.40
2018-11-10T21:38:40.786Z,2.40
2018-11-10T21:39:40.761Z,2.30
2018-11-10T21:40:40.823Z,2.40
2018-11-10T21:41:40.761Z,2.10
2018-11-10T21:42:40.729Z,2.10
2018-11-10T21:43:40.800Z,2.10
2018-11-10T21:44:40.661Z,2.30
2018-11-10T21:45:40.657Z,2.00
2018-11-10T21:46:40.674Z,2.10
2018-11-10T21:47:40.610Z,1.80
2018-11-10T21:48:40.581Z,1.70
2018-11-10T21:49:40.731Z,2.30
2018-11-10T21:50:40.555Z,2.10
2018-11-10T21:51:40.523Z,1.90
2018-11-10T21:52:40.519Z,1.90
2018-11-10T21:53:40.477Z,1.90
2018-11-10T21:54:40.460Z,2.50
2018-11-10T21:55:40.449Z,2.30
2018-11-10T21:56:40.420Z,2.50
2018-11-10T21:57:40.397Z,2.40
2018-11-10T21:58:40.378Z,4.20
2018-11-10T21:59:40.358Z,4.60
2018-11-10T22:00:40.339Z,8.40
2018-11-10T22:01:40.318Z,3.70
2018-11-10T22:02:40.313Z,5.70
2018-11-10T22:03:40.275Z,3.90
2018-11-10T22:04:40.258Z,4.50
2018-11-10T22:05:40.233Z,3.20
2018-11-10T22:06:40.215Z,2.90
2018-11-10T22:07:40.195Z,4.90
2018-11-10T22:08:40.187Z,3.70
2018-11-10T22:09:40.271Z,2.80
2018-11-10T22:10:40.138Z,3.00
2018-11-10T22:11:40.113Z,2.90
2018-11-10T22:12:40.091Z,7.00
2018-11-10T22:13:40.075Z,4.20
2018-11-10T22:14:40.051Z,3.40
2018-11-10T22:15:40.075Z,2.70
2018-11-10T22:16:40.012Z,3.50
2018-11-10T22:17:39.993Z,2.90
2018-11-10T22:18:39.973Z,2.70
2018-11-10T22:19:39.948Z,2.20
2018-11-10T22:20:39.929Z,2.20
2018-11-10T22:21:39.909Z,2.40
2018-11-10T22:22:39.936Z,2.30
2018-11-10T22:23:39.871Z,3.00
2018-11-10T22:24:39.850Z,3.10
2018-11-10T22:25:39.827Z,3.10
2018-11-10T22:26:39.812Z,2.60
2018-11-10T22:27:39.788Z,2.40
2018-11-10T22:28:39.765Z,3.40
2018-11-10T22:29:39.744Z,3.90
2018-11-10T22:30:39.724Z,3.30
2018-11-10T22:31:39.706Z,2.70
2018-11-10T22:32:39.684Z,2.10
2018-11-10T22:33:39.663Z,2.40
2018-11-10T22:34:39.642Z,2.50
2018-11-10T22:35:39.624Z,2.40
2018-11-10T22:36:39.604Z,2.70
2018-11-10T22:37:39.587Z,2.10
2018-11-10T22:38:39.561Z,2.10
2018-11-10T22:39:39.545Z,2.60
2018-11-10T22:40:39.515Z,2.40
2018-11-10T22:41:39.505Z,2.90
2018-11-10T22:42:39.484Z,2.10
2018-11-10T22:43:39.476Z,2.00
2018-11-10T22:44:39.440Z,2.40
2018-11-10T22:45:39.421Z,2.00
2018-11-10T22:46:39.391Z,2.20
2018-11-10T22:47:39.432Z,2.50
2018-11-10T22:48:39.355Z,2.30
2018-11-10T22:49:39.330Z,2.60
2018-11-10T22:50:39.318Z,2.10
2018-11-10T22:51:39.295Z,2.10
2018-11-10T22:52:39.284Z,1.90
2018-11-10T22:53:39.252Z,1.90
2018-11-10T22:54:39.235Z,2.10
2018-11-10T22:55:39.211Z,1.90
2018-11-10T22:56:39.255Z,1.80
2018-11-10T22:57:39.168Z,2.40
2018-11-10T22:58:39.154Z,2.00
2018-11-10T22:59:39.137Z,2.80
2018-11-10T23:00:39.103Z,2.10
2018-11-10T23:01:39.090Z,1.90
2018-11-10T23:02:39.073Z,1.80
2018-11-10T23:03:39.078Z,1.80
2018-11-10T23:04:39.032Z,1.90
2018-11-10T23:05:39.008Z,1.60
2018-11-10T23:06:38.990Z,1.60
2018-11-10T23:07:38.968Z,1.70
2018-11-10T23:08:38.948Z,1.60
2018-11-10T23:09:38.929Z,1.80
2018-11-10T23:10:38.909Z,1.60
2018-11-10T23:11:38.918Z,1.60
2018-11-10T23:12:38.867Z,1.70
2018-11-10T23:13:38.852Z,1.80
2018-11-10T23:14:38.820Z,1.60
2018-11-10T23:15:38.814Z,1.60
2018-11-10T23:16:38.777Z,1.30
2018-11-10T23:17:38.766Z,1.60
2018-11-10T23:18:38.751Z,1.50
2018-11-10T23:19:38.733Z,1.50
2018-11-10T23:20:38.708Z,1.40
2018-11-10T23:21:38.683Z,1.50
2018-11-10T23:22:38.657Z,1.60
2018-11-10T23:23:38.675Z,1.50
2018-11-10T23:24:38.619Z,1.70
2018-11-10T23:25:38.605Z,1.60
2018-11-10T23:26:38.583Z,1.60
2018-11-10T23:27:38.569Z,1.50
2018-11-10T23:28:38.531Z,1.50
2018-11-10T23:29:38.513Z,1.50
2018-11-10T23:30:38.502Z,1.60
2018-11-10T23:31:38.469Z,1.50
2018-11-10T23:32:38.475Z,1.40
2018-11-10T23:33:38.439Z,1.40
2018-11-10T23:34:38.413Z,1.50
2018-11-10T23:35:38.395Z,1.50
2018-11-10T23:36:38.370Z,1.50
2018-11-10T23:37:38.358Z,1.40
2018-11-10T23:38:38.342Z,1.20
2018-11-10T23:39:38.318Z,1.50
2018-11-10T23:40:38.293Z,1.60
2018-11-10T23:41:38.271Z,1.50
2018-11-10T23:42:38.250Z,1.50
2018-11-10T23:43:38.227Z,1.50
2018-11-10T23:44:38.209Z,1.50
2018-11-10T23:45:38.193Z,1.40
2018-11-10T23:46:38.162Z,1.30
2018-11-10T23:47:38.144Z,1.60
2018-11-10T23:48:38.132Z,1.10
2018-11-10T23:49:38.117Z,1.30
2018-11-10T23:50:38.090Z,1.50
2018-11-10T23:51:38.065Z,1.40
2018-11-10T23:52:38.042Z,1.40
2018-11-10T23:53:38.025Z,1.30
2018-11-10T23:54:38.006Z,1.50
2018-11-10T23:55:37.985Z,1.30
2018-11-10T23:56:37.957Z,1.30
2018-11-10T23:57:37.949Z,1.30
2018-11-10T23:58:37.916Z,1.20
2018-11-10T23:59:37.899Z,1.10
